createdAt,value
2022-10-18T00:01:14.599Z,8.93
2022-10-18T00:06:14.796Z,8.90
2022-10-18T00:08:41.456Z,9.15
2022-10-18T00:11:08.367Z,9.23
2022-10-18T00:13:35.753Z,8.82
2022-10-18T00:16:04.749Z,8.75
2022-10-18T00:18:36.193Z,8.35
2022-10-18T00:21:06.483Z,8.98
2022-10-18T00:23:36.086Z,9.07
2022-10-18T00:26:19.800Z,8.73
2022-10-18T00:28:49.980Z,8.90
2022-10-18T00:31:20.855Z,8.80
2022-10-18T00:33:50.913Z,10.02
2022-10-18T00:36:18.237Z,9.25
2022-10-18T00:38:48.303Z,8.15
2022-10-18T00:41:20.422Z,9.40
2022-10-18T00:44:02.349Z,9.20
2022-10-18T00:46:31.440Z,9.07
2022-10-18T00:51:50.838Z,8.55
2022-10-18T00:54:19.356Z,8.65
2022-10-18T00:56:46.377Z,9.45
2022-10-18T00:59:18.089Z,8.70
2022-10-18T01:01:47.681Z,9.30
2022-10-18T01:04:21.811Z,9.18
2022-10-18T01:07:03.676Z,9.77
2022-10-18T01:09:42.300Z,10.32
2022-10-18T01:12:45.629Z,10.73
2022-10-18T01:15:27.544Z,10.15
2022-10-18T01:18:12.006Z,9.60
2022-10-18T01:21:10.815Z,10.60
2022-10-18T01:23:58.516Z,10.30
2022-10-18T01:26:40.252Z,11.43
2022-10-18T01:29:28.582Z,11.00
2022-10-18T01:32:02.529Z,11.00
2022-10-18T01:34:35.243Z,12.05
2022-10-18T01:37:09.371Z,10.48
2022-10-18T01:39:40.046Z,11.57
2022-10-18T01:42:11.547Z,11.30
2022-10-18T01:44:41.000Z,11.48
2022-10-18T01:47:13.084Z,11.43
2022-10-18T01:49:44.446Z,11.65
2022-10-18T01:52:15.641Z,10.57
2022-10-18T01:54:50.836Z,11.88
2022-10-18T02:00:05.958Z,10.10
2022-10-18T02:02:35.220Z,10.88
2022-10-18T02:05:20.304Z,9.65
2022-10-18T02:07:55.437Z,10.50
2022-10-18T02:10:55.645Z,9.70
2022-10-18T02:13:29.743Z,8.98
2022-10-18T02:16:05.131Z,9.55
2022-10-18T02:18:40.271Z,9.98
2022-10-18T02:21:13.027Z,9.75
2022-10-18T02:23:42.783Z,11.88
2022-10-18T02:26:09.286Z,9.30
2022-10-18T02:28:38.524Z,10.35
2022-10-18T02:31:23.169Z,10.57
2022-10-18T02:33:55.928Z,10.45
2022-10-18T02:36:27.807Z,10.10
2022-10-18T02:39:04.691Z,10.40
2022-10-18T02:41:34.785Z,9.20
2022-10-18T02:44:03.640Z,10.00
2022-10-18T02:46:30.177Z,9.35
2022-10-18T02:48:56.682Z,10.40
2022-10-18T02:51:23.803Z,10.68
2022-10-18T02:53:52.895Z,9.98
2022-10-18T02:58:47.987Z,9.65
2022-10-18T03:01:14.525Z,10.18
2022-10-18T03:03:41.134Z,11.10
2022-10-18T03:06:07.680Z,9.95
2022-10-18T03:08:36.865Z,10.18
2022-10-18T03:11:05.650Z,9.98
2022-10-18T03:13:34.704Z,10.38
2022-10-18T03:18:30.414Z,10.35
2022-10-18T03:23:35.121Z,11.27
2022-10-18T03:26:02.009Z,11.27
2022-10-18T03:28:31.553Z,11.40
2022-10-18T03:31:02.551Z,11.60
2022-10-18T03:33:32.591Z,11.13
2022-10-18T03:36:01.424Z,11.80
2022-10-18T03:38:27.998Z,10.57
2022-10-18T03:40:54.562Z,11.32
2022-10-18T03:43:21.296Z,11.82
2022-10-18T03:45:47.995Z,12.20
2022-10-18T03:48:14.622Z,12.25
2022-10-18T03:50:41.221Z,11.93
2022-10-18T03:53:10.020Z,11.20
2022-10-18T03:55:37.475Z,12.05
2022-10-18T03:58:04.556Z,10.70
2022-10-18T04:00:34.030Z,11.98
2022-10-18T04:03:00.659Z,10.48
2022-10-18T04:05:31.972Z,10.82
2022-10-18T04:08:00.807Z,10.73
2022-10-18T04:10:27.373Z,11.15
2022-10-18T04:12:54.318Z,11.55
2022-10-18T04:15:21.034Z,10.43
2022-10-18T04:17:47.617Z,10.57
2022-10-18T04:20:16.613Z,11.07
2022-10-18T04:22:43.155Z,11.15
2022-10-18T04:25:09.671Z,10.77
2022-10-18T04:27:37.402Z,10.57
2022-10-18T04:30:06.621Z,11.13
2022-10-18T04:32:35.558Z,9.70
2022-10-18T04:35:06.160Z,10.20
2022-10-18T04:37:33.685Z,10.52
2022-10-18T04:40:00.504Z,10.25
2022-10-18T04:42:27.062Z,10.73
2022-10-18T04:44:53.659Z,11.05
2022-10-18T04:47:20.399Z,10.25
2022-10-18T04:49:47.050Z,10.02
2022-10-18T04:52:13.627Z,10.95
2022-10-18T04:54:40.159Z,10.35
2022-10-18T04:57:06.689Z,10.20
2022-10-18T04:59:37.213Z,10.15
2022-10-18T05:02:06.926Z,9.60
2022-10-18T05:04:33.606Z,10.88
2022-10-18T05:07:00.152Z,16.45
2022-10-18T05:09:29.569Z,11.52
2022-10-18T05:11:56.084Z,10.07
2022-10-18T05:14:22.631Z,10.50
2022-10-18T05:16:51.862Z,10.52
2022-10-18T05:19:18.432Z,10.00
2022-10-18T05:21:44.979Z,9.95
2022-10-18T05:24:12.249Z,9.93
2022-10-18T05:26:41.171Z,10.77
2022-10-18T05:29:10.451Z,9.00
2022-10-18T05:31:39.722Z,10.25
2022-10-18T05:34:08.749Z,10.55
2022-10-18T05:36:37.491Z,11.20
2022-10-18T05:39:05.285Z,9.85
2022-10-18T05:41:34.675Z,11.25
2022-10-18T05:44:05.585Z,10.77
2022-10-18T05:46:34.797Z,10.63
2022-10-18T05:49:01.432Z,11.05
2022-10-18T05:51:30.175Z,11.10
2022-10-18T05:53:56.771Z,10.52
2022-10-18T05:56:23.266Z,10.13
2022-10-18T05:58:51.665Z,9.88
2022-10-18T06:01:21.686Z,10.70
2022-10-18T06:03:50.889Z,10.40
2022-10-18T06:06:20.484Z,9.68
2022-10-18T06:08:50.234Z,10.48
2022-10-18T06:11:21.482Z,10.95
2022-10-18T06:13:49.864Z,11.15
2022-10-18T06:16:18.595Z,10.98
2022-10-18T06:18:54.224Z,11.38
2022-10-18T06:21:21.783Z,11.32
2022-10-18T06:23:53.212Z,11.48
2022-10-18T06:26:20.421Z,11.18
2022-10-18T06:28:52.230Z,11.77
2022-10-18T06:31:22.511Z,11.80
2022-10-18T06:33:49.360Z,10.68
2022-10-18T06:36:24.446Z,11.50
2022-10-18T06:38:51.527Z,11.30
2022-10-18T06:41:19.224Z,10.80
2022-10-18T06:43:57.731Z,10.98
2022-10-18T06:46:29.017Z,10.23
2022-10-18T06:48:55.568Z,12.15
2022-10-18T06:51:22.041Z,10.77
2022-10-18T06:54:05.941Z,11.98
2022-10-18T06:56:38.359Z,11.43
2022-10-18T06:59:09.695Z,10.95
2022-10-18T07:01:36.498Z,12.57
2022-10-18T07:04:03.277Z,11.82
2022-10-18T07:06:29.815Z,12.40
2022-10-18T07:08:57.133Z,9.65
2022-10-18T07:11:26.471Z,11.30
2022-10-18T07:14:02.960Z,13.00
2022-10-18T07:16:30.107Z,10.98
2022-10-18T07:18:56.819Z,12.50
2022-10-18T07:21:27.581Z,12.52
2022-10-18T07:23:54.584Z,11.25
2022-10-18T07:26:24.580Z,11.35
2022-10-18T07:28:55.308Z,12.00
2022-10-18T07:31:25.036Z,11.60
2022-10-18T07:33:52.251Z,11.82
2022-10-18T07:36:19.225Z,13.35
2022-10-18T07:38:48.032Z,12.25
2022-10-18T07:41:17.452Z,12.93
2022-10-18T07:43:50.749Z,12.15
2022-10-18T07:46:20.504Z,11.50
2022-10-18T07:48:47.642Z,11.88
2022-10-18T07:51:20.444Z,13.45
2022-10-18T07:53:47.455Z,13.25
2022-10-18T07:56:16.590Z,11.93
2022-10-18T07:58:53.192Z,14.43
2022-10-18T08:01:21.450Z,13.63
2022-10-18T08:03:53.334Z,12.57
2022-10-18T08:06:21.173Z,11.75
2022-10-18T08:08:49.967Z,11.45
2022-10-18T08:11:25.255Z,12.13
2022-10-18T08:13:53.777Z,11.90
2022-10-18T08:16:23.181Z,10.10
2022-10-18T08:18:54.451Z,12.15
2022-10-18T08:21:23.590Z,10.35
2022-10-18T08:23:53.897Z,10.65
2022-10-18T08:26:21.857Z,12.02
2022-10-18T08:28:54.023Z,12.63
2022-10-18T08:31:25.581Z,12.75
2022-10-18T08:33:55.089Z,12.77
2022-10-18T08:36:21.617Z,12.65
2022-10-18T08:38:49.350Z,13.38
2022-10-18T08:41:33.859Z,12.27
2022-10-18T08:44:18.660Z,12.82
2022-10-18T08:46:49.907Z,13.32
2022-10-18T08:49:28.451Z,11.68
2022-10-18T08:51:56.901Z,10.32
2022-10-18T08:54:44.545Z,10.50
2022-10-18T08:57:18.096Z,9.93
2022-10-18T08:59:44.705Z,9.07
2022-10-18T09:02:26.316Z,9.38
2022-10-18T09:05:36.825Z,9.95
2022-10-18T09:08:41.287Z,7.82
2022-10-18T09:11:32.206Z,8.90
2022-10-18T09:14:14.923Z,8.35
2022-10-18T09:17:02.596Z,7.50
2022-10-18T09:19:57.827Z,7.93
2022-10-18T09:22:37.723Z,6.75
2022-10-18T09:25:17.246Z,6.07
2022-10-18T09:28:06.361Z,6.32
2022-10-18T09:30:53.034Z,6.57
2022-10-18T09:33:40.639Z,6.90
2022-10-18T09:36:14.933Z,6.07
2022-10-18T09:38:49.433Z,6.03
2022-10-18T09:41:25.114Z,6.22
2022-10-18T09:44:00.687Z,5.95
2022-10-18T09:46:36.295Z,5.53
2022-10-18T09:49:26.175Z,5.50
2022-10-18T09:51:54.285Z,5.72
2022-10-18T09:54:35.095Z,5.60
2022-10-18T09:57:20.955Z,5.68
2022-10-18T09:59:49.403Z,5.43
2022-10-18T10:02:18.812Z,5.72
2022-10-18T10:04:45.466Z,5.53
2022-10-18T10:07:19.217Z,5.45
2022-10-18T10:09:56.958Z,5.18
2022-10-18T10:12:40.290Z,5.50
2022-10-18T10:15:31.232Z,5.78
2022-10-18T10:18:23.013Z,5.45
2022-10-18T10:20:53.696Z,5.35
2022-10-18T10:23:30.853Z,6.07
2022-10-18T10:26:01.749Z,5.10
2022-10-18T10:28:46.351Z,5.43
2022-10-18T10:31:26.332Z,5.00
2022-10-18T10:34:00.920Z,5.50
2022-10-18T10:36:31.262Z,5.00
2022-10-18T10:39:24.221Z,5.30
2022-10-18T10:41:56.322Z,5.15
2022-10-18T10:44:26.146Z,5.43
2022-10-18T10:47:02.460Z,4.93
2022-10-18T10:49:40.374Z,4.80
2022-10-18T10:52:26.844Z,5.00
2022-10-18T10:55:16.997Z,4.75
2022-10-18T10:57:55.221Z,4.47
2022-10-18T11:03:33.364Z,5.05
2022-10-18T11:06:01.018Z,4.75
2022-10-18T11:08:33.195Z,5.00
2022-10-18T11:11:27.386Z,5.05
2022-10-18T11:14:13.559Z,4.90
2022-10-18T11:17:26.380Z,5.00
2022-10-18T11:20:18.887Z,4.70
2022-10-18T11:23:18.009Z,4.88
2022-10-18T11:26:03.076Z,4.78
2022-10-18T11:28:54.188Z,4.20
2022-10-18T11:31:33.020Z,4.95
2022-10-18T11:34:14.819Z,4.53
2022-10-18T11:37:39.532Z,4.22
2022-10-18T11:40:05.621Z,4.43
2022-10-18T11:42:59.136Z,4.57
2022-10-18T11:45:34.755Z,4.20
2022-10-18T11:48:36.466Z,4.18
2022-10-18T11:51:56.076Z,4.40
2022-10-18T11:54:50.314Z,4.32
2022-10-18T11:57:41.744Z,4.55
2022-10-18T12:00:19.767Z,4.47
2022-10-18T12:03:01.359Z,4.20
2022-10-18T12:05:29.671Z,4.05
2022-10-18T12:08:07.457Z,4.10
2022-10-18T12:10:52.849Z,4.15
2022-10-18T12:13:45.762Z,4.10
2022-10-18T12:16:15.136Z,3.85
2022-10-18T12:18:49.741Z,3.75
2022-10-18T12:21:24.562Z,3.70
2022-10-18T12:24:01.071Z,3.63
2022-10-18T12:26:34.346Z,4.10
2022-10-18T12:29:09.977Z,4.13
2022-10-18T12:31:53.633Z,3.83
2022-10-18T12:34:23.082Z,4.10
2022-10-18T12:37:16.502Z,4.13
2022-10-18T12:40:08.638Z,3.75
2022-10-18T12:42:42.863Z,3.78
2022-10-18T12:45:26.262Z,4.07
2022-10-18T12:47:53.589Z,3.90
2022-10-18T12:50:23.156Z,3.72
2022-10-18T12:53:02.167Z,4.00
2022-10-18T12:55:36.957Z,4.05
2022-10-18T13:00:34.382Z,4.10
2022-10-18T13:03:12.623Z,4.68
2022-10-18T13:05:53.378Z,4.05
2022-10-18T13:08:33.951Z,4.50
2022-10-18T13:11:12.287Z,3.75
2022-10-18T13:14:09.343Z,3.65
2022-10-18T13:16:48.953Z,3.60
2022-10-18T13:19:58.049Z,3.28
2022-10-18T13:22:58.607Z,3.63
2022-10-18T13:25:46.077Z,3.85
2022-10-18T13:28:35.613Z,3.38
2022-10-18T13:31:14.107Z,3.60
2022-10-18T13:33:44.021Z,3.63
2022-10-18T13:36:31.182Z,3.15
2022-10-18T13:39:02.706Z,3.90
2022-10-18T13:41:34.545Z,3.75
2022-10-18T13:44:02.111Z,3.67
2022-10-18T13:46:34.589Z,3.63
2022-10-18T13:49:25.368Z,3.90
2022-10-18T13:52:25.998Z,3.15
2022-10-18T13:55:17.394Z,3.08
2022-10-18T13:57:43.878Z,3.53
2022-10-18T14:00:15.770Z,3.50
2022-10-18T14:03:56.179Z,3.65
2022-10-18T14:06:51.783Z,4.25
2022-10-18T14:09:55.671Z,3.63
2022-10-18T14:12:58.319Z,3.55
2022-10-18T14:15:33.838Z,3.40
2022-10-18T14:18:15.387Z,3.58
2022-10-18T14:21:12.734Z,3.45
2022-10-18T14:23:49.645Z,3.45
2022-10-18T14:26:22.878Z,3.38
2022-10-18T14:29:23.398Z,3.63
2022-10-18T14:31:54.458Z,3.47
2022-10-18T14:34:34.333Z,3.60
2022-10-18T14:37:31.382Z,3.40
2022-10-18T14:40:28.284Z,3.38
2022-10-18T14:42:54.776Z,3.83
2022-10-18T14:45:29.406Z,3.53
2022-10-18T14:48:21.602Z,3.08
2022-10-18T14:51:03.491Z,3.88
2022-10-18T14:53:37.416Z,4.00
2022-10-18T14:56:05.164Z,3.42
2022-10-18T14:58:37.996Z,3.75
2022-10-18T15:01:05.179Z,3.17
2022-10-18T15:03:35.983Z,3.10
2022-10-18T15:06:10.591Z,3.53
2022-10-18T15:08:41.661Z,4.00
2022-10-18T15:11:13.293Z,3.55
2022-10-18T15:14:24.146Z,3.42
2022-10-18T15:16:59.023Z,3.38
2022-10-18T15:19:44.128Z,3.92
2022-10-18T15:22:32.337Z,3.88
2022-10-18T15:25:15.314Z,3.63
2022-10-18T15:27:47.652Z,3.70
2022-10-18T15:30:22.306Z,4.13
2022-10-18T15:32:53.950Z,3.45
2022-10-18T15:35:29.094Z,3.60
2022-10-18T15:38:14.205Z,4.03
2022-10-18T15:40:43.824Z,3.85
2022-10-18T15:43:30.657Z,4.13
2022-10-18T15:46:06.403Z,3.55
2022-10-18T15:48:41.285Z,3.78
2022-10-18T15:51:20.280Z,4.20
2022-10-18T15:53:49.974Z,4.20
2022-10-18T15:56:30.580Z,5.10
2022-10-18T15:58:59.490Z,4.60
2022-10-18T16:04:00.253Z,3.75
2022-10-18T16:06:26.784Z,4.35
2022-10-18T16:08:53.767Z,3.90
2022-10-18T16:11:25.414Z,4.53
2022-10-18T16:13:57.863Z,4.05
2022-10-18T16:16:29.041Z,5.07
2022-10-18T16:18:59.110Z,4.43
2022-10-18T16:21:27.505Z,4.57
2022-10-18T16:23:54.611Z,4.28
2022-10-18T16:26:24.650Z,4.95
2022-10-18T16:28:52.298Z,3.97
2022-10-18T16:31:22.167Z,4.38
2022-10-18T16:33:49.713Z,4.63
2022-10-18T16:36:22.408Z,5.32
2022-10-18T16:38:49.963Z,5.50
2022-10-18T16:41:16.836Z,5.03
2022-10-18T16:43:48.317Z,5.43
2022-10-18T16:46:37.378Z,5.15
2022-10-18T16:49:17.103Z,5.18
2022-10-18T16:51:46.196Z,5.05
2022-10-18T16:54:12.731Z,5.70
2022-10-18T16:56:41.695Z,5.03
2022-10-18T17:01:45.411Z,4.32
2022-10-18T17:04:16.794Z,4.75
2022-10-18T17:06:43.555Z,4.82
2022-10-18T17:09:14.268Z,5.32
2022-10-18T17:11:43.229Z,4.65
2022-10-18T17:16:39.092Z,5.35
2022-10-18T17:19:10.600Z,4.85
2022-10-18T17:21:37.650Z,4.90
2022-10-18T17:24:18.641Z,5.13
2022-10-18T17:26:47.628Z,4.68
2022-10-18T17:29:14.228Z,5.00
2022-10-18T17:31:40.941Z,4.30
2022-10-18T17:34:16.452Z,5.43
2022-10-18T17:39:32.994Z,4.88
2022-10-18T17:42:05.137Z,4.82
2022-10-18T17:44:31.700Z,4.65
2022-10-18T17:47:11.204Z,4.93
2022-10-18T17:49:52.506Z,5.05
2022-10-18T17:55:30.118Z,4.95
2022-10-18T17:58:02.757Z,4.90
2022-10-18T18:00:48.812Z,5.05
2022-10-18T18:03:18.003Z,5.60
2022-10-18T18:05:47.509Z,4.43
2022-10-18T18:08:15.015Z,4.78
2022-10-18T18:10:42.030Z,5.00
2022-10-18T18:13:09.071Z,4.85
2022-10-18T18:19:05.068Z,5.07
2022-10-18T18:24:41.084Z,5.03
2022-10-18T18:27:31.661Z,5.15
2022-10-18T18:30:00.269Z,5.20
2022-10-18T18:32:29.284Z,5.00
2022-10-18T18:34:58.451Z,5.47
2022-10-18T18:37:27.571Z,6.32
2022-10-18T18:42:41.145Z,6.13
2022-10-18T18:45:10.674Z,6.20
2022-10-18T18:47:41.486Z,5.63
2022-10-18T18:50:11.048Z,5.60
2022-10-18T18:52:37.616Z,5.97
2022-10-18T18:55:07.301Z,5.15
2022-10-18T18:57:34.015Z,5.78
2022-10-18T19:00:04.578Z,5.70
2022-10-18T19:02:31.044Z,6.07
2022-10-18T19:05:00.045Z,6.57
2022-10-18T19:09:55.416Z,6.35
2022-10-18T19:12:24.483Z,6.22
2022-10-18T19:14:51.030Z,6.50
2022-10-18T19:17:17.661Z,6.38
2022-10-18T19:19:44.244Z,6.03
2022-10-18T19:22:11.140Z,6.82
2022-10-18T19:24:37.708Z,6.15
2022-10-18T19:27:09.617Z,5.70
2022-10-18T19:29:46.062Z,5.65
2022-10-18T19:32:13.390Z,6.55
2022-10-18T19:34:40.462Z,5.35
2022-10-18T19:37:09.382Z,6.07
2022-10-18T19:39:51.337Z,5.88
2022-10-18T19:42:27.481Z,6.57
2022-10-18T19:45:08.764Z,6.18
2022-10-18T19:47:41.159Z,6.70
2022-10-18T19:50:12.567Z,6.68
2022-10-18T19:52:42.096Z,5.85
2022-10-18T19:58:00.547Z,6.40
2022-10-18T20:00:52.190Z,6.05
2022-10-18T20:03:24.578Z,6.53
2022-10-18T20:06:03.376Z,6.72
2022-10-18T20:09:05.301Z,6.20
2022-10-18T20:11:31.909Z,6.45
2022-10-18T20:13:59.680Z,6.97
2022-10-18T20:16:31.356Z,7.40
2022-10-18T20:19:05.089Z,6.70
2022-10-18T20:21:35.920Z,6.43
2022-10-18T20:24:09.757Z,6.70
2022-10-18T20:26:39.576Z,7.07
2022-10-18T20:29:08.798Z,7.07
2022-10-18T20:31:38.484Z,8.05
2022-10-18T20:34:11.645Z,6.40
2022-10-18T20:36:38.602Z,6.07
2022-10-18T20:39:06.777Z,6.60
2022-10-18T20:41:41.069Z,6.15
2022-10-18T20:44:12.107Z,6.35
2022-10-18T20:46:39.549Z,6.18
2022-10-18T20:49:11.599Z,6.15
2022-10-18T20:51:40.547Z,7.03
2022-10-18T20:54:07.887Z,6.90
2022-10-18T20:56:36.557Z,7.15
2022-10-18T20:59:10.586Z,6.00
2022-10-18T21:01:38.950Z,6.32
2022-10-18T21:04:08.215Z,7.20
2022-10-18T21:06:44.715Z,6.82
2022-10-18T21:09:18.819Z,6.25
2022-10-18T21:11:50.113Z,6.07
2022-10-18T21:14:19.017Z,6.82
2022-10-18T21:16:53.397Z,5.93
2022-10-18T21:19:24.237Z,6.68
2022-10-18T21:21:54.349Z,6.50
2022-10-18T21:24:24.879Z,6.38
2022-10-18T21:26:54.584Z,6.60
2022-10-18T21:29:24.613Z,6.90
2022-10-18T21:31:55.038Z,6.63
2022-10-18T21:34:26.059Z,6.22
2022-10-18T21:36:52.625Z,7.10
2022-10-18T21:41:51.691Z,7.15
2022-10-18T21:44:18.534Z,7.15
2022-10-18T21:46:46.657Z,7.35
2022-10-18T21:49:14.139Z,7.25
2022-10-18T21:51:41.127Z,6.90
2022-10-18T21:54:14.401Z,6.97
2022-10-18T21:56:41.214Z,6.82
2022-10-18T21:59:10.572Z,6.20
2022-10-18T22:01:38.799Z,7.07
2022-10-18T22:04:08.126Z,6.20
2022-10-18T22:06:38.474Z,6.18
2022-10-18T22:09:08.298Z,6.15
2022-10-18T22:11:39.012Z,6.25
2022-10-18T22:14:05.721Z,5.88
2022-10-18T22:16:32.514Z,5.88
2022-10-18T22:19:02.552Z,6.00
2022-10-18T22:21:32.037Z,6.07
2022-10-18T22:23:59.274Z,7.57
2022-10-18T22:26:34.164Z,6.78
2022-10-18T22:29:03.875Z,6.40
2022-10-18T22:31:35.850Z,5.72
2022-10-18T22:34:10.433Z,6.50
2022-10-18T22:36:37.163Z,6.93
2022-10-18T22:39:05.533Z,5.85
2022-10-18T22:41:33.488Z,5.22
2022-10-18T22:44:03.652Z,5.93
2022-10-18T22:46:34.263Z,6.40
2022-10-18T22:49:00.962Z,5.82
2022-10-18T22:51:27.515Z,6.28
2022-10-18T22:53:54.305Z,6.47
2022-10-18T22:56:23.839Z,5.72
2022-10-18T22:58:52.847Z,5.65
2022-10-18T23:03:54.684Z,5.75
2022-10-18T23:06:35.221Z,6.40
2022-10-18T23:09:07.021Z,6.43
2022-10-18T23:11:36.359Z,6.60
2022-10-18T23:14:09.202Z,6.82
2022-10-18T23:16:35.966Z,6.60
2022-10-18T23:19:04.869Z,5.57
2022-10-18T23:21:33.624Z,5.88
2022-10-18T23:24:00.119Z,6.60
2022-10-18T23:26:27.855Z,7.35
2022-10-18T23:28:55.239Z,6.70
2022-10-18T23:31:27.147Z,6.93
2022-10-18T23:33:58.396Z,6.43
2022-10-18T23:36:28.769Z,6.20
2022-10-18T23:38:58.492Z,6.22
2022-10-18T23:41:27.470Z,6.15
2022-10-18T23:43:56.766Z,6.35
2022-10-18T23:46:25.525Z,7.00
2022-10-18T23:48:54.668Z,6.25
2022-10-18T23:51:23.352Z,6.55
2022-10-18T23:53:52.459Z,7.05
2022-10-18T23:58:53.150Z,5.82
